Central, AK (99730)

12:48 AM AKDT on July 29, 2014 (GMT -0800)
Central (PACE) Elev 958 ft | 65.57 °N, 144.80 °W | Change Station

Current weather conditions updated 534 days ago

Rain
Rain
45 °F
Feels Like 45 °F
N
9
Wind Variable Wind from North
Gusts 9 mph

Today is forecast to be nearly the same temperature as yesterday.

Today
High -- | Low -- °F
--% Chance of Precip.
Yesterday
High -- | Low -- °F
Precip. -- in
4:24 AM 11:06 PM
Waxing Crescent, 5% visible
Pressure 29.45 in
Visibility 0.5 miles
Clouds
Dew Point 43 °F
Humidity 89%
Rainfall 0.00 in
Snow Depth Not available.
UV Not available.
Pollen Not available.
Air Quality Not available.
Flu Activity Not available.
METAR PACE 091747Z 00000KT 1/2SM FZFG VV004 M05/M06 A2945 RMK NOSPECI

More Conditions Fewer Conditions

Pressure 29.45 in
Visibility 0.5 miles
Clouds
Dew Point 43 °F
Humidity 89%
Rainfall 0.00 in
Snow Depth Not available.
UV Not available.
Pollen Not available.
Air Quality Not available.
Flu Activity Not available.
METAR PACE 091747Z 00000KT 1/2SM FZFG VV004 M05/M06 A2945 RMK NOSPECI

More Conditions Fewer Conditions

10-Day Weather Forecast

Almanac

Astronomy

Jul. 29, 2014 Rise Set
Actual Time 4:24 AM AKDT 11:06 PM AKDT
Civil Twilight 2:19 AM AKDT 1:18 AM AKDT
Nautical Twilight Sun does not rise Sun does not rise
Astronomical Twilight Sun does not rise Sun does not rise
Moon 8:48 AM AKDT 10:34 PM AKDT
Length of Visible Light 22h 59m
Length of Day
18h 42m
Tomorrow will be 7m 19s shorter.
Waxing Crescent, 5% of the Moon is Illuminated
Today
Waxing Crescent
Aug 3
First Quarter
Aug 10
Full
Aug 17
Last Quarter
Aug 25
New

Today's Extremes

State Highs State Lows

Community

WunderPhotos

Upload Photos

1,738,655 photos uploaded!

Nearby

Snow Depth

Station Depth Elevation
Eagle Summit 0 in 3650 ft
Upper Chena 6 in 2850 ft
Monument Creek 0 in 1850 ft
Munson Ridge 1 in 3100 ft
Little Chena Ridge 1 in 2000 ft

Earthquake Activity

City Distance Mag. Time & Date
No recent earthquake activity has been reported nearby.
Minimum magnitude displayed is 2.5.

Coastal Water Temperatures

Place Temperature
No Stations Reporting

Nearby Weather Stations

Station Location Temp. Dew Point Humidity Wind Precip. Elev Updated Type
Central Alaska, Central, AK 52.9 °F 47 °F 79% West  at  3.0 mph 0.00 in / hr 917 ft 12:30 AM AKDT Normal

Show More Stations Show Fewer Stations